Pagrindinis puslapis
METAR-TAF:

METAR-TAF

Oro uostai :

Buriram, Tailandas

platuma: 15-13-46N, ilguma: 103-15-04E, Aukštis: 180 m

Dabartinis oras

Ataskaita buvo paskelbta 31 minutes, ne 08:00 UTC
Vėjas 8 kt iš Šiaurės Rytų, svyruoja nuo Šiaurės ir Rytų
Temperatūra 31°C
Drėgmė 29%
Slėgis 1016 hPa
Matomumas 10 km arba daugiau
nėra debesų žemiau 1500 m ir nėra kamuolinių lietaus debesų

METAR: VTUO 230800Z 04008KT 010V080 CAVOK 31/11 Q1016 NOSIG

Laikas: 15:31 (08:31 UTC)

Prognozė

Ataskaita buvo paskelbta 3 valandos ir 31 minutes, ne 05:00 UTC
Prognozė galioja nuo 23 metu 06 UTC su 24 metu 06 UTC
Vėjas 8 kt iš Šiaurės Rytų
Matomumas 10 km arba daugiau
nėra debesų žemiau 1500 m ir nėra kamuolinių lietaus debesų

TAF: VTUO 230500Z 2306/2406 05008KT CAVOK

Orai ataskaitas ir orų prognozės (METAR, TAF).

turimą stotys yra geltonos ir raudonos taškus žemėlapyje.

Perkelti pele per norėdami pamatyti stoties vardą.

Tada spustelėkite, norėdami matyti oro stebėjimo ir prognozės.

Norėdami pakeisti žemėlapį: spustelėkite ant žalios mygtukų su juodo kryžiaus žemyn,; žalią mygtuką su brūkšneliu, jei norite nutolinti; arba žalių rodyklių gretimoms žemėlapius.


METAR-TAF: